createdAt,value
2022-10-27T00:01:29.512Z,4.15
2022-10-27T00:03:58.036Z,3.85
2022-10-27T00:06:26.463Z,3.83
2022-10-27T00:08:54.664Z,3.95
2022-10-27T00:11:22.900Z,3.40
2022-10-27T00:13:52.419Z,4.32
2022-10-27T00:16:21.211Z,4.57
2022-10-27T00:18:49.684Z,3.80
2022-10-27T00:21:20.781Z,4.20
2022-10-27T00:23:51.140Z,4.63
2022-10-27T00:26:22.111Z,4.20
2022-10-27T00:28:52.005Z,4.45
2022-10-27T00:31:23.093Z,4.28
2022-10-27T00:33:51.982Z,5.47
2022-10-27T00:36:23.268Z,4.75
2022-10-27T00:38:54.108Z,4.78
2022-10-27T00:41:29.572Z,3.90
2022-10-27T00:44:00.803Z,4.20
2022-10-27T00:46:37.712Z,5.28
2022-10-27T00:49:10.439Z,5.00
2022-10-27T00:51:42.164Z,4.10
2022-10-27T00:54:11.835Z,4.45
2022-10-27T00:56:41.471Z,4.15
2022-10-27T00:59:11.352Z,3.92
2022-10-27T01:01:40.063Z,3.70
2022-10-27T01:04:09.556Z,3.80
2022-10-27T01:06:38.132Z,4.15
2022-10-27T01:09:07.256Z,4.00
2022-10-27T01:11:35.815Z,4.03
2022-10-27T01:14:05.268Z,4.07
2022-10-27T01:16:45.956Z,4.05
2022-10-27T01:19:42.455Z,4.13
2022-10-27T01:22:15.864Z,4.05
2022-10-27T01:25:14.794Z,3.75
2022-10-27T01:28:24.209Z,4.30
2022-10-27T01:31:03.052Z,4.00
2022-10-27T01:33:39.774Z,3.92
2022-10-27T01:36:15.197Z,3.53
2022-10-27T01:38:50.864Z,4.43
2022-10-27T01:41:25.635Z,3.50
2022-10-27T01:43:58.936Z,4.28
2022-10-27T01:46:28.760Z,3.83
2022-10-27T01:48:57.802Z,4.15
2022-10-27T01:54:00.097Z,3.95
2022-10-27T01:57:01.732Z,4.15
2022-10-27T01:59:52.560Z,3.80
2022-10-27T02:02:34.077Z,4.28
2022-10-27T02:05:11.829Z,3.88
2022-10-27T02:07:55.400Z,3.47
2022-10-27T02:10:28.545Z,3.05
2022-10-27T02:12:59.040Z,3.33
2022-10-27T02:15:34.053Z,3.53
2022-10-27T02:18:07.558Z,3.45
2022-10-27T02:20:39.970Z,3.30
2022-10-27T02:23:13.368Z,3.67
2022-10-27T02:25:50.246Z,4.50
2022-10-27T02:28:23.544Z,3.88
2022-10-27T02:30:52.636Z,4.07
2022-10-27T02:33:22.414Z,3.90
2022-10-27T02:35:51.024Z,4.80
2022-10-27T02:38:19.513Z,5.28
2022-10-27T02:40:48.487Z,4.15
2022-10-27T02:43:17.003Z,4.80
2022-10-27T02:45:45.529Z,4.95
2022-10-27T02:48:13.712Z,5.22
2022-10-27T02:50:43.307Z,5.57
2022-10-27T02:53:11.815Z,4.50
2022-10-27T02:55:39.998Z,4.78
2022-10-27T02:58:08.467Z,4.53
2022-10-27T03:00:37.052Z,4.50
2022-10-27T03:03:05.675Z,5.15
2022-10-27T03:05:34.323Z,4.95
2022-10-27T03:08:04.513Z,5.57
2022-10-27T03:10:32.696Z,5.95
2022-10-27T03:13:00.866Z,6.53
2022-10-27T03:15:29.388Z,6.68
2022-10-27T03:17:57.871Z,5.50
2022-10-27T03:20:26.216Z,6.28
2022-10-27T03:22:55.262Z,5.68
2022-10-27T03:25:24.952Z,5.10
2022-10-27T03:27:54.452Z,6.32
2022-10-27T03:30:23.335Z,6.13
2022-10-27T03:32:53.412Z,6.07
2022-10-27T03:35:22.124Z,7.22
2022-10-27T03:37:57.235Z,6.28
2022-10-27T03:40:27.810Z,5.63
2022-10-27T03:42:58.913Z,5.20
2022-10-27T03:45:29.164Z,4.40
2022-10-27T03:48:01.938Z,4.55
2022-10-27T03:50:30.527Z,4.43
2022-10-27T03:52:59.457Z,4.50
2022-10-27T03:55:29.089Z,3.97
2022-10-27T03:57:57.962Z,4.35
2022-10-27T04:00:28.535Z,4.88
2022-10-27T04:02:57.351Z,4.20
2022-10-27T04:05:26.444Z,4.75
2022-10-27T04:07:54.902Z,4.22
2022-10-27T04:10:23.429Z,4.55
2022-10-27T04:12:54.795Z,4.78
2022-10-27T04:15:24.489Z,4.38
2022-10-27T04:17:54.419Z,4.22
2022-10-27T04:20:23.033Z,3.17
2022-10-27T04:22:51.925Z,3.53
2022-10-27T04:25:20.596Z,3.28
2022-10-27T04:27:49.430Z,2.92
2022-10-27T04:30:19.512Z,3.33
2022-10-27T04:32:53.521Z,3.30
2022-10-27T04:35:22.128Z,2.92
2022-10-27T04:37:50.713Z,3.15
2022-10-27T04:40:19.367Z,3.05
2022-10-27T04:42:48.100Z,3.55
2022-10-27T04:45:18.394Z,4.05
2022-10-27T04:47:47.195Z,3.22
2022-10-27T04:50:17.000Z,2.72
2022-10-27T04:52:56.244Z,3.20
2022-10-27T04:55:25.028Z,4.15
2022-10-27T04:57:53.496Z,4.68
2022-10-27T05:00:24.387Z,4.85
2022-10-27T05:02:56.780Z,6.47
2022-10-27T05:05:27.682Z,6.65
2022-10-27T05:07:57.207Z,6.45
2022-10-27T05:10:26.028Z,7.22
2022-10-27T05:12:55.058Z,5.70
2022-10-27T05:15:24.846Z,3.42
2022-10-27T05:17:54.126Z,3.63
2022-10-27T05:20:23.485Z,3.88
2022-10-27T05:22:51.790Z,4.47
2022-10-27T05:25:20.427Z,4.13
2022-10-27T05:27:49.356Z,3.88
2022-10-27T05:30:18.280Z,3.67
2022-10-27T05:32:47.879Z,3.55
2022-10-27T05:35:16.887Z,3.20
2022-10-27T05:37:45.873Z,2.88
2022-10-27T05:40:15.186Z,3.13
2022-10-27T05:42:51.978Z,3.15
2022-10-27T05:45:21.591Z,3.30
2022-10-27T05:47:57.792Z,2.63
2022-10-27T05:50:26.887Z,3.42
2022-10-27T05:52:55.492Z,3.03
2022-10-27T05:55:24.727Z,3.47
2022-10-27T05:57:57.482Z,3.05
2022-10-27T06:00:30.369Z,3.55
2022-10-27T06:03:01.946Z,3.47
2022-10-27T06:05:31.940Z,3.33
2022-10-27T06:08:00.573Z,2.65
2022-10-27T06:10:29.803Z,2.90
2022-10-27T06:13:03.251Z,3.38
2022-10-27T06:15:32.956Z,3.20
2022-10-27T06:18:02.703Z,4.32
2022-10-27T06:20:31.340Z,3.92
2022-10-27T06:23:00.006Z,3.95
2022-10-27T06:25:28.746Z,3.38
2022-10-27T06:27:57.642Z,3.35
2022-10-27T06:30:26.303Z,3.40
2022-10-27T06:32:55.258Z,3.42
2022-10-27T06:35:25.392Z,3.22
2022-10-27T06:37:53.865Z,3.60
2022-10-27T06:40:22.558Z,4.38
2022-10-27T06:43:08.069Z,3.80
2022-10-27T06:45:37.774Z,3.85
2022-10-27T06:48:08.564Z,3.42
2022-10-27T06:50:38.433Z,4.35
2022-10-27T06:53:06.686Z,3.72
2022-10-27T06:55:35.107Z,3.83
2022-10-27T06:58:03.776Z,4.93
2022-10-27T07:00:31.991Z,4.35
2022-10-27T07:03:00.588Z,4.93
2022-10-27T07:05:29.108Z,5.47
2022-10-27T07:07:58.687Z,6.05
2022-10-27T07:10:27.252Z,6.80
2022-10-27T07:12:57.533Z,5.90
2022-10-27T07:15:27.617Z,5.28
2022-10-27T07:17:59.127Z,5.70
2022-10-27T07:20:29.382Z,5.78
2022-10-27T07:22:59.765Z,6.13
2022-10-27T07:25:29.551Z,6.50
2022-10-27T07:27:58.471Z,6.35
2022-10-27T07:30:28.934Z,6.57
2022-10-27T07:32:57.915Z,7.35
2022-10-27T07:35:27.233Z,9.45
2022-10-27T07:37:55.858Z,9.10
2022-10-27T07:40:28.840Z,7.63
2022-10-27T07:43:06.795Z,7.35
2022-10-27T07:45:38.483Z,6.57
2022-10-27T07:48:08.316Z,6.72
2022-10-27T07:50:36.843Z,5.82
2022-10-27T07:53:05.772Z,7.68
2022-10-27T07:55:36.972Z,6.40
2022-10-27T07:58:07.808Z,6.05
2022-10-27T08:00:39.063Z,6.88
2022-10-27T08:03:11.655Z,6.57
2022-10-27T08:05:40.267Z,6.68
2022-10-27T08:08:09.823Z,7.55
2022-10-27T08:10:41.399Z,6.75
2022-10-27T08:13:10.797Z,5.90
2022-10-27T08:15:41.072Z,6.05
2022-10-27T08:18:11.360Z,6.18
2022-10-27T08:20:42.636Z,7.25
2022-10-27T08:23:13.854Z,6.53
2022-10-27T08:25:44.291Z,6.15
2022-10-27T08:28:13.900Z,6.70
2022-10-27T08:30:51.449Z,7.38
2022-10-27T08:33:21.558Z,7.28
2022-10-27T08:35:51.269Z,6.20
2022-10-27T08:38:20.661Z,6.75
2022-10-27T08:41:07.006Z,7.38
2022-10-27T08:44:09.512Z,7.00
2022-10-27T08:46:42.836Z,7.57
2022-10-27T08:49:30.024Z,7.22
2022-10-27T08:52:04.391Z,7.13
2022-10-27T08:54:32.934Z,6.95
2022-10-27T08:57:04.863Z,7.25
2022-10-27T08:59:34.898Z,6.90
2022-10-27T09:02:20.693Z,6.88
2022-10-27T09:05:11.504Z,6.80
2022-10-27T09:07:56.205Z,6.47
2022-10-27T09:10:43.131Z,7.10
2022-10-27T09:13:30.203Z,5.97
2022-10-27T09:16:02.740Z,6.03
2022-10-27T09:18:37.457Z,5.45
2022-10-27T09:21:14.868Z,6.80
2022-10-27T09:23:50.847Z,5.95
2022-10-27T09:26:21.950Z,7.60
2022-10-27T09:28:54.816Z,6.65
2022-10-27T09:31:30.220Z,7.97
2022-10-27T09:34:08.027Z,6.72
2022-10-27T09:36:36.565Z,6.40
2022-10-27T09:39:05.156Z,7.35
2022-10-27T09:41:34.315Z,7.70
2022-10-27T09:44:05.522Z,8.98
2022-10-27T09:46:33.885Z,10.88
2022-10-27T09:49:10.044Z,9.60
2022-10-27T09:51:46.998Z,11.60
2022-10-27T09:54:31.992Z,12.25
2022-10-27T09:57:06.928Z,11.65
2022-10-27T09:59:38.024Z,12.27
2022-10-27T10:02:20.527Z,14.38
2022-10-27T10:04:49.125Z,15.63
2022-10-27T10:07:34.521Z,14.30
2022-10-27T10:10:07.835Z,13.43
2022-10-27T10:12:36.128Z,12.57
2022-10-27T10:15:20.939Z,13.25
2022-10-27T10:17:58.126Z,12.23
2022-10-27T10:20:36.244Z,11.75
2022-10-27T10:23:10.519Z,11.02
2022-10-27T10:25:47.219Z,11.90
2022-10-27T10:28:29.842Z,11.73
2022-10-27T10:31:01.083Z,15.15
2022-10-27T10:33:35.996Z,13.93
2022-10-27T10:38:52.328Z,14.98
2022-10-27T10:41:21.825Z,19.05
2022-10-27T10:44:13.695Z,18.90
2022-10-27T10:46:53.868Z,19.65
2022-10-27T10:49:25.109Z,18.50
2022-10-27T10:51:57.246Z,19.20
2022-10-27T10:54:30.009Z,20.45
2022-10-27T10:56:58.421Z,18.42
2022-10-27T10:59:31.117Z,17.05
2022-10-27T11:02:07.169Z,18.08
2022-10-27T11:04:44.309Z,16.55
2022-10-27T11:07:23.711Z,13.60
2022-10-27T11:10:04.790Z,14.27
2022-10-27T11:12:40.897Z,13.20
2022-10-27T11:15:25.884Z,12.73
2022-10-27T11:18:00.459Z,13.90
2022-10-27T11:20:32.927Z,14.68
2022-10-27T11:23:04.196Z,15.20
2022-10-27T11:25:35.216Z,14.23
2022-10-27T11:28:16.530Z,13.02
2022-10-27T11:30:54.532Z,14.20
2022-10-27T11:33:38.419Z,12.48
2022-10-27T11:36:15.352Z,12.32
2022-10-27T11:38:59.852Z,12.43
2022-10-27T11:41:37.656Z,13.38
2022-10-27T11:44:16.384Z,14.23
2022-10-27T11:46:52.329Z,11.73
2022-10-27T11:49:34.931Z,12.35
2022-10-27T11:52:13.300Z,13.15
2022-10-27T11:54:41.988Z,10.73
2022-10-27T11:57:42.706Z,10.68
2022-10-27T12:00:21.975Z,10.68
2022-10-27T12:03:30.912Z,11.02
2022-10-27T12:06:07.882Z,10.38
2022-10-27T12:08:49.299Z,10.40
2022-10-27T12:11:32.812Z,9.90
2022-10-27T12:14:11.079Z,9.32
2022-10-27T12:16:47.122Z,9.18
2022-10-27T12:19:19.721Z,9.45
2022-10-27T12:21:55.308Z,8.82
2022-10-27T12:24:30.577Z,8.90
2022-10-27T12:27:01.750Z,9.75
2022-10-27T12:29:36.354Z,8.55
2022-10-27T12:34:45.869Z,8.15
2022-10-27T12:37:24.044Z,8.73
2022-10-27T12:40:02.131Z,8.93
2022-10-27T12:42:40.475Z,8.82
2022-10-27T12:45:35.380Z,8.70
2022-10-27T12:48:16.865Z,8.45
2022-10-27T12:50:53.789Z,8.93
2022-10-27T12:53:38.042Z,8.25
2022-10-27T12:56:12.834Z,7.80
2022-10-27T12:58:52.124Z,8.20
2022-10-27T13:01:34.354Z,7.78
2022-10-27T13:04:35.131Z,7.40
2022-10-27T13:08:08.770Z,7.75
2022-10-27T13:11:12.779Z,7.53
2022-10-27T13:14:19.724Z,7.40
2022-10-27T13:17:04.826Z,7.53
2022-10-27T13:19:45.520Z,7.18
2022-10-27T13:22:23.243Z,8.48
2022-10-27T13:25:00.859Z,7.55
2022-10-27T13:27:39.876Z,8.85
2022-10-27T13:30:17.176Z,7.65
2022-10-27T13:32:54.671Z,8.02
2022-10-27T13:35:36.135Z,7.15
2022-10-27T13:38:26.399Z,7.50
2022-10-27T13:40:57.707Z,6.97
2022-10-27T13:43:58.996Z,7.20
2022-10-27T13:47:12.049Z,7.43
2022-10-27T13:50:00.331Z,7.22
2022-10-27T13:52:37.528Z,7.03
2022-10-27T13:55:35.287Z,7.20
2022-10-27T13:58:52.886Z,6.68
2022-10-27T14:01:34.659Z,7.45
2022-10-27T14:04:46.884Z,6.35
2022-10-27T14:07:16.944Z,6.93
2022-10-27T14:09:48.765Z,6.88
2022-10-27T14:12:26.441Z,6.22
2022-10-27T14:15:01.615Z,7.00
2022-10-27T14:17:31.558Z,6.82
2022-10-27T14:20:04.497Z,6.18
2022-10-27T14:22:37.240Z,7.00
2022-10-27T14:25:20.433Z,6.35
2022-10-27T14:27:49.970Z,6.43
2022-10-27T14:30:22.740Z,6.07
2022-10-27T14:32:52.367Z,7.28
2022-10-27T14:35:27.147Z,6.78
2022-10-27T14:37:58.055Z,5.95
2022-10-27T14:40:38.120Z,5.85
2022-10-27T14:43:16.727Z,6.10
2022-10-27T14:45:46.318Z,5.32
2022-10-27T14:48:26.054Z,5.63
2022-10-27T14:50:55.365Z,6.00
2022-10-27T14:53:32.057Z,5.53
2022-10-27T14:56:09.141Z,5.45
2022-10-27T14:58:37.809Z,5.20
2022-10-27T15:01:06.629Z,5.70
2022-10-27T15:03:36.541Z,4.78
2022-10-27T15:06:05.299Z,5.43
2022-10-27T15:08:38.752Z,5.13
2022-10-27T15:11:08.525Z,5.95
2022-10-27T15:13:37.169Z,5.85
2022-10-27T15:16:12.206Z,6.07
2022-10-27T15:18:44.120Z,5.68
2022-10-27T15:21:15.680Z,5.72
2022-10-27T15:23:46.308Z,5.82
2022-10-27T15:26:18.073Z,5.47
2022-10-27T15:28:47.051Z,5.35
2022-10-27T15:31:16.701Z,5.60
2022-10-27T15:33:48.870Z,6.28
2022-10-27T15:36:25.365Z,6.07
2022-10-27T15:38:55.063Z,6.47
2022-10-27T15:41:25.823Z,6.25
2022-10-27T15:44:10.270Z,6.80
2022-10-27T15:46:39.170Z,11.70
2022-10-27T15:49:25.452Z,18.63
2022-10-27T15:51:56.677Z,13.93
2022-10-27T15:54:33.090Z,9.63
2022-10-27T15:57:03.077Z,8.18
2022-10-27T15:59:32.808Z,9.02
2022-10-27T16:02:04.342Z,8.35
2022-10-27T16:04:36.744Z,7.28
2022-10-27T16:07:31.211Z,9.70
2022-10-27T16:10:00.359Z,8.77
2022-10-27T16:12:42.909Z,9.02
2022-10-27T16:15:21.785Z,9.07
2022-10-27T16:17:54.757Z,9.50
2022-10-27T16:20:28.055Z,9.75
2022-10-27T16:22:57.170Z,11.52
2022-10-27T16:25:29.633Z,10.52
2022-10-27T16:27:58.815Z,9.38
2022-10-27T16:30:27.297Z,9.18
2022-10-27T16:33:02.095Z,9.13
2022-10-27T16:38:00.997Z,9.38
2022-10-27T16:40:29.360Z,8.93
2022-10-27T16:42:57.785Z,9.10
2022-10-27T16:45:26.363Z,9.85
2022-10-27T16:47:54.825Z,9.63
2022-10-27T16:50:23.900Z,8.90
2022-10-27T16:52:58.060Z,11.02
2022-10-27T16:55:26.611Z,9.80
2022-10-27T16:57:57.602Z,8.95
2022-10-27T17:00:26.657Z,9.65
2022-10-27T17:02:55.421Z,9.73
2022-10-27T17:05:24.265Z,9.52
2022-10-27T17:07:53.225Z,10.23
2022-10-27T17:12:52.051Z,10.60
2022-10-27T17:15:20.409Z,9.88
2022-10-27T17:17:48.604Z,10.68
2022-10-27T17:20:17.187Z,9.55
2022-10-27T17:22:45.668Z,11.60
2022-10-27T17:25:13.852Z,10.65
2022-10-27T17:27:43.403Z,11.68
2022-10-27T17:30:12.909Z,13.30
2022-10-27T17:32:41.470Z,12.48
2022-10-27T17:35:10.472Z,10.85
2022-10-27T17:37:38.655Z,13.20
2022-10-27T17:40:08.248Z,10.70
2022-10-27T17:42:36.887Z,10.02
2022-10-27T17:45:07.555Z,10.10
2022-10-27T17:47:36.174Z,11.35
2022-10-27T17:50:08.226Z,11.43
2022-10-27T17:52:37.612Z,11.05
2022-10-27T17:55:08.524Z,12.68
2022-10-27T17:57:37.102Z,12.30
2022-10-27T18:00:08.189Z,11.50
2022-10-27T18:02:40.640Z,12.50
2022-10-27T18:05:09.196Z,12.70
2022-10-27T18:07:37.671Z,12.13
2022-10-27T18:10:07.477Z,12.55
2022-10-27T18:12:35.979Z,12.70
2022-10-27T18:15:30.686Z,12.07
2022-10-27T18:17:54.408Z,11.02
2022-10-27T18:20:22.899Z,11.85
2022-10-27T18:22:52.991Z,12.23
2022-10-27T18:25:21.839Z,12.00
2022-10-27T18:27:50.060Z,11.90
2022-10-27T18:30:19.739Z,11.68
2022-10-27T18:32:47.918Z,10.70
2022-10-27T18:35:16.382Z,10.65
2022-10-27T18:37:44.559Z,11.05
2022-10-27T18:40:14.356Z,11.73
2022-10-27T18:42:42.597Z,11.77
2022-10-27T18:45:11.339Z,11.15
2022-10-27T18:47:41.261Z,13.35
2022-10-27T18:50:10.715Z,12.80
2022-10-27T18:52:38.995Z,12.05
2022-10-27T18:55:07.676Z,11.13
2022-10-27T18:57:36.243Z,11.02
2022-10-27T19:00:06.146Z,10.68
2022-10-27T19:02:34.439Z,9.95
2022-10-27T19:05:04.417Z,9.40
2022-10-27T19:07:32.970Z,9.38
2022-10-27T19:10:01.339Z,8.57
2022-10-27T19:12:29.570Z,9.35
2022-10-27T19:14:57.789Z,7.88
2022-10-27T19:17:26.192Z,8.63
2022-10-27T19:19:56.049Z,8.40
2022-10-27T19:22:25.575Z,7.75
2022-10-27T19:24:54.206Z,7.28
2022-10-27T19:27:22.437Z,7.90
2022-10-27T19:29:50.960Z,6.70
2022-10-27T19:32:19.185Z,6.15
2022-10-27T19:34:49.997Z,6.95
2022-10-27T19:37:18.803Z,6.60
2022-10-27T19:39:48.641Z,5.55
2022-10-27T19:42:16.880Z,8.15
2022-10-27T19:44:45.099Z,6.75
2022-10-27T19:47:13.410Z,5.82
2022-10-27T19:49:41.670Z,5.35
2022-10-27T19:52:10.045Z,6.45
2022-10-27T19:54:38.539Z,6.43
2022-10-27T19:57:09.372Z,6.55
2022-10-27T19:59:39.094Z,5.45
2022-10-27T20:02:08.327Z,5.38
2022-10-27T20:04:38.288Z,5.53
2022-10-27T20:07:06.991Z,5.60
2022-10-27T20:09:35.338Z,5.57
2022-10-27T20:12:03.529Z,4.68
2022-10-27T20:14:34.191Z,6.22
2022-10-27T20:17:02.588Z,6.00
2022-10-27T20:19:37.793Z,6.63
2022-10-27T20:22:06.719Z,5.38
2022-10-27T20:24:34.996Z,5.18
2022-10-27T20:27:03.285Z,5.63
2022-10-27T20:29:35.649Z,6.13
2022-10-27T20:32:04.648Z,7.97
2022-10-27T20:34:36.073Z,7.13
2022-10-27T20:37:07.204Z,6.35
2022-10-27T20:39:35.399Z,5.28
2022-10-27T20:42:03.779Z,5.38
2022-10-27T20:44:33.592Z,5.57
2022-10-27T20:47:02.078Z,6.07
2022-10-27T20:49:30.756Z,5.72
2022-10-27T20:51:59.039Z,7.18
2022-10-27T20:54:27.228Z,5.78
2022-10-27T20:56:55.443Z,4.80
2022-10-27T20:59:26.408Z,5.15
2022-10-27T21:01:56.567Z,5.38
2022-10-27T21:04:24.974Z,5.10
2022-10-27T21:06:53.470Z,4.90
2022-10-27T21:09:22.385Z,4.63
2022-10-27T21:11:51.296Z,5.10
2022-10-27T21:14:20.317Z,5.43
2022-10-27T21:16:52.002Z,5.55
2022-10-27T21:19:21.977Z,5.38
2022-10-27T21:21:50.523Z,6.40
2022-10-27T21:24:19.223Z,5.68
2022-10-27T21:26:47.895Z,4.75
2022-10-27T21:29:16.619Z,5.47
2022-10-27T21:31:46.551Z,5.63
2022-10-27T21:34:16.002Z,5.28
2022-10-27T21:36:45.527Z,6.90
2022-10-27T21:39:14.708Z,6.55
2022-10-27T21:41:42.937Z,5.65
2022-10-27T21:44:11.434Z,5.72
2022-10-27T21:46:39.911Z,6.00
2022-10-27T21:49:08.435Z,7.15
2022-10-27T21:51:36.684Z,5.90
2022-10-27T21:54:06.601Z,6.30
2022-10-27T21:56:36.800Z,5.38
2022-10-27T21:59:05.600Z,5.97
2022-10-27T22:01:34.122Z,5.65
2022-10-27T22:04:03.131Z,5.30
2022-10-27T22:06:34.487Z,5.93
2022-10-27T22:09:02.949Z,6.00
2022-10-27T22:11:37.040Z,6.57
2022-10-27T22:14:06.104Z,5.88
2022-10-27T22:16:35.630Z,6.25
2022-10-27T22:19:06.845Z,5.88
2022-10-27T22:21:37.738Z,6.13
2022-10-27T22:24:07.701Z,5.93
2022-10-27T22:26:40.681Z,5.60
2022-10-27T22:29:09.447Z,6.22
2022-10-27T22:31:37.757Z,6.03
2022-10-27T22:34:05.994Z,5.82
2022-10-27T22:36:35.131Z,6.20
2022-10-27T22:39:05.042Z,5.22
2022-10-27T22:41:36.407Z,4.88
2022-10-27T22:44:06.152Z,4.60
2022-10-27T22:46:35.957Z,4.57
2022-10-27T22:49:04.876Z,4.75
2022-10-27T22:51:34.156Z,4.43
2022-10-27T22:54:02.684Z,4.63
2022-10-27T22:56:33.474Z,4.55
2022-10-27T22:59:08.316Z,4.60
2022-10-27T23:04:13.216Z,4.68
2022-10-27T23:06:41.804Z,4.90
2022-10-27T23:09:14.980Z,4.82
2022-10-27T23:11:43.957Z,5.20
2022-10-27T23:14:16.909Z,4.97
2022-10-27T23:16:45.533Z,4.35
2022-10-27T23:19:14.562Z,5.78
2022-10-27T23:21:42.769Z,4.80
2022-10-27T23:24:11.298Z,4.35
2022-10-27T23:26:40.536Z,5.53
2022-10-27T23:29:14.215Z,6.10
2022-10-27T23:31:42.849Z,5.53
2022-10-27T23:34:12.916Z,5.53
2022-10-27T23:36:44.434Z,5.85
2022-10-27T23:39:13.227Z,5.22
2022-10-27T23:41:41.445Z,5.60
2022-10-27T23:44:09.823Z,5.70
2022-10-27T23:46:39.360Z,4.68
2022-10-27T23:49:07.807Z,5.28
2022-10-27T23:51:36.029Z,4.90
2022-10-27T23:54:04.588Z,4.57
2022-10-27T23:56:32.795Z,5.95
2022-10-27T23:59:01.873Z,4.63
